Time;durP1;ratioP1;P1;durP2;ratioP2;P2;SDS_P1;SDS_P2;PMS_P1;PMS_P2;Temp;Humidity;BMP_temperature;BMP_pressure;BME280_temperature;BME280_humidity;BME280_pressure;Samples;Min_cycle;Max_cycle;Signal;HPM_P1;HPM_P2
2023/11/02 00:01:11;;;;;;;2.13;0.83;;;12.30;99.90;;;;;;4227238;28;20292;-78
2023/11/02 00:03:26;;;;;;;1.83;0.73;;;12.20;99.90;;;;;;4226539;28;20225;-76
2023/11/02 00:05:59;;;;;;;4.10;0.80;;;12.20;99.90;;;;;;4224790;28;20218;-77
2023/11/02 00:08:01;;;;;;;4.87;1.40;;;12.20;99.90;;;;;;4224433;28;20263;-76
2023/11/02 00:10:05;;;;;;;3.67;0.70;;;12.20;99.90;;;;;;4231142;28;20223;-76
2023/11/02 00:12:07;;;;;;;3.63;1.00;;;12.20;99.90;;;;;;4228236;27;20227;-76
2023/11/02 00:14:09;;;;;;;2.00;0.90;;;12.20;99.90;;;;;;4225608;27;20256;-76
2023/11/02 00:16:12;;;;;;;1.60;0.90;;;12.20;99.90;;;;;;4227768;28;20211;-76
2023/11/02 00:18:14;;;;;;;1.93;1.00;;;12.10;99.90;;;;;;4230414;27;20212;-76
2023/11/02 00:20:32;;;;;;;2.10;0.83;;;12.10;99.90;;;;;;4228206;28;20209;-76
2023/11/02 00:22:39;;;;;;;1.97;0.80;;;12.10;99.90;;;;;;4232145;27;20220;-76
2023/11/02 00:24:43;;;;;;;3.53;0.80;;;12.10;99.90;;;;;;4230406;27;20320;-76
2023/11/02 00:26:46;;;;;;;2.57;1.00;;;12.00;99.90;;;;;;4228497;27;20254;-75
2023/11/02 00:28:48;;;;;;;1.30;0.80;;;12.00;99.90;;;;;;4229446;27;20194;-76
2023/11/02 00:30:53;;;;;;;1.63;0.70;;;12.00;99.90;;;;;;4223554;28;20227;-75
2023/11/02 00:32:55;;;;;;;2.30;0.70;;;12.00;99.90;;;;;;4228841;27;20205;-76
2023/11/02 00:34:57;;;;;;;1.33;0.67;;;11.90;99.90;;;;;;4229986;27;20194;-76
2023/11/02 00:36:58;;;;;;;2.33;0.90;;;11.90;99.90;;;;;;4226518;27;20274;-76
2023/11/02 00:39:02;;;;;;;2.70;1.00;;;11.90;99.90;;;;;;4227457;27;20196;-77
2023/11/02 00:41:05;;;;;;;4.87;0.80;;;11.90;99.90;;;;;;4225160;27;20240;-76
2023/11/02 00:43:08;;;;;;;2.10;0.90;;;11.80;99.90;;;;;;4225452;27;20228;-76
2023/11/02 00:45:10;;;;;;;1.30;0.80;;;11.70;99.90;;;;;;4230802;27;20543;-76
2023/11/02 00:47:16;;;;;;;3.00;0.60;;;11.70;99.90;;;;;;4227386;28;20604;-76
2023/11/02 00:49:21;;;;;;;2.17;0.90;;;11.70;99.90;;;;;;4227399;27;20196;-76
2023/11/02 00:51:30;;;;;;;3.33;0.80;;;11.60;99.90;;;;;;4225479;28;20208;-76
2023/11/02 00:53:31;;;;;;;3.37;1.00;;;11.60;99.90;;;;;;4228252;27;20306;-76
2023/11/02 00:55:35;;;;;;;1.43;0.73;;;11.50;99.90;;;;;;4230827;27;20283;-76
2023/11/02 00:57:39;;;;;;;1.70;0.70;;;11.50;99.90;;;;;;4229997;28;20240;-76
2023/11/02 00:59:44;;;;;;;2.50;1.00;;;11.50;99.90;;;;;;4227469;27;20797;-76
2023/11/02 01:01:47;;;;;;;1.17;0.67;;;11.40;99.90;;;;;;4233083;27;20230;-77
2023/11/02 01:03:50;;;;;;;2.23;0.60;;;11.40;99.90;;;;;;4223302;28;20256;-75
2023/11/02 01:05:52;;;;;;;5.10;0.90;;;11.40;99.90;;;;;;4230923;27;20200;-77
2023/11/02 01:07:53;;;;;;;1.77;0.80;;;11.30;99.90;;;;;;4230783;27;20204;-76
2023/11/02 01:09:57;;;;;;;1.27;0.70;;;11.30;99.90;;;;;;4226535;27;20204;-76
2023/11/02 01:11:59;;;;;;;2.03;0.83;;;11.20;99.90;;;;;;4232144;27;20192;-76
2023/11/02 01:14:06;;;;;;;5.73;1.00;;;11.20;99.90;;;;;;4227859;28;20229;-76
2023/11/02 01:16:10;;;;;;;1.60;0.80;;;11.20;99.90;;;;;;4230078;27;20264;-77
2023/11/02 01:18:13;;;;;;;3.43;1.00;;;11.10;99.90;;;;;;4229131;27;20246;-78
2023/11/02 01:20:53;;;;;;;1.63;0.70;;;11.00;99.90;;;;;;4230343;27;20204;-76
2023/11/02 01:22:59;;;;;;;1.37;0.80;;;11.10;99.90;;;;;;4226584;28;20980;-76
2023/11/02 01:25:03;;;;;;;1.27;0.80;;;11.00;99.90;;;;;;4226739;27;20204;-76
2023/11/02 01:27:05;;;;;;;1.90;0.70;;;11.00;99.90;;;;;;4228187;28;20239;-77
2023/11/02 01:29:06;;;;;;;1.27;0.80;;;11.00;99.90;;;;;;4228747;27;20768;-76
2023/11/02 01:31:16;;;;;;;2.77;0.97;;;10.90;99.90;;;;;;4230302;27;20204;-77
2023/11/02 01:33:58;;;;;;;2.10;0.77;;;10.90;99.90;;;;;;4224268;27;20224;-76
2023/11/02 01:36:01;;;;;;;2.53;0.80;;;10.80;99.90;;;;;;4226882;28;20216;-76
2023/11/02 01:38:02;;;;;;;1.93;0.90;;;10.80;99.90;;;;;;4230793;27;20291;-76
2023/11/02 01:40:10;;;;;;;3.60;0.97;;;10.80;99.90;;;;;;4231218;27;20614;-76
2023/11/02 01:42:19;;;;;;;1.27;0.70;;;10.80;99.90;;;;;;4224499;28;20228;-76
2023/11/02 01:44:23;;;;;;;1.80;0.73;;;10.70;99.90;;;;;;4228902;27;20219;-77
2023/11/02 01:46:36;;;;;;;1.20;0.73;;;10.70;99.90;;;;;;4223054;28;20242;-77
2023/11/02 01:48:45;;;;;;;2.13;0.87;;;10.80;99.90;;;;;;4228880;27;20619;-76
2023/11/02 01:50:51;;;;;;;1.30;0.60;;;10.80;99.90;;;;;;4229801;27;20740;-77
2023/11/02 01:53:24;;;;;;;1.97;0.80;;;10.70;99.90;;;;;;4222674;27;20291;-76
2023/11/02 01:55:40;;;;;;;2.03;0.93;;;10.70;99.90;;;;;;4221197;27;20211;-77
2023/11/02 01:57:54;;;;;;;1.77;0.73;;;10.60;99.90;;;;;;4223996;28;20200;-76
2023/11/02 02:00:04;;;;;;;2.13;1.00;;;10.60;99.90;;;;;;4224759;28;20220;-77
2023/11/02 02:02:14;;;;;;;3.50;1.30;;;10.60;99.90;;;;;;4224609;27;20220;-76
2023/11/02 02:04:25;;;;;;;1.60;0.60;;;10.50;99.90;;;;;;4228005;27;20702;-76
2023/11/02 02:06:36;;;;;;;4.73;1.10;;;10.50;99.90;;;;;;4225456;28;20309;-77
2023/11/02 02:08:50;;;;;;;1.53;0.83;;;10.50;99.90;;;;;;4225089;27;20200;-76
2023/11/02 02:11:04;;;;;;;1.87;0.90;;;10.40;99.90;;;;;;4223414;28;20324;-76
2023/11/02 02:13:14;;;;;;;2.10;0.90;;;10.40;99.90;;;;;;4224787;27;20570;-78
2023/11/02 02:15:22;;;;;;;5.50;1.20;;;10.40;99.90;;;;;;4224408;27;20314;-76
2023/11/02 02:17:34;;;;;;;1.53;0.90;;;10.30;99.90;;;;;;4228618;27;20208;-76
2023/11/02 02:20:08;;;;;;;3.63;0.80;;;10.40;99.90;;;;;;4228776;27;20735;-77
2023/11/02 02:22:16;;;;;;;2.97;1.00;;;10.20;99.90;;;;;;4224641;27;20256;-77
2023/11/02 02:24:31;;;;;;;3.07;0.80;;;10.20;99.90;;;;;;4225108;27;20277;-76
2023/11/02 02:27:03;;;;;;;4.97;0.87;;;10.20;99.90;;;;;;4222483;28;20203;-77
2023/11/02 02:29:32;;;;;;;1.60;0.70;;;10.20;99.90;;;;;;4225485;27;21087;-76
2023/11/02 02:31:48;;;;;;;1.67;0.77;;;10.20;99.90;;;;;;4223252;27;20269;-77
2023/11/02 02:34:23;;;;;;;2.53;0.77;;;10.20;99.90;;;;;;4230962;27;20553;-76
2023/11/02 02:36:32;;;;;;;1.87;0.87;;;10.10;99.90;;;;;;4225914;27;20206;-77
2023/11/02 02:38:43;;;;;;;1.80;0.90;;;10.10;99.90;;;;;;4227118;27;20202;-76
2023/11/02 02:40:51;;;;;;;1.73;0.90;;;10.10;99.90;;;;;;4223882;28;20265;-76
2023/11/02 02:42:56;;;;;;;2.40;1.20;;;10.00;99.90;;;;;;4226305;28;20220;-76
2023/11/02 02:45:00;;;;;;;3.23;0.77;;;10.00;99.90;;;;;;4228707;27;20258;-75
2023/11/02 02:47:03;;;;;;;6.13;0.90;;;10.00;99.90;;;;;;4224864;27;20240;-75
2023/11/02 02:49:05;;;;;;;2.73;0.83;;;10.00;99.90;;;;;;4231133;27;20221;-77
2023/11/02 02:51:09;;;;;;;1.20;0.87;;;9.90;99.90;;;;;;4224350;27;20256;-75
2023/11/02 02:53:17;;;;;;;1.00;0.60;;;9.90;99.90;;;;;;4230123;27;20238;-76
2023/11/02 02:55:22;;;;;;;1.67;0.63;;;9.90;99.90;;;;;;4222393;28;20222;-76
2023/11/02 02:57:28;;;;;;;3.33;0.87;;;9.90;99.90;;;;;;4224146;28;20570;-75
2023/11/02 02:59:37;;;;;;;3.63;0.90;;;9.90;99.90;;;;;;4222709;28;20207;-76
2023/11/02 03:01:41;;;;;;;3.60;0.90;;;9.90;99.90;;;;;;4224398;28;20227;-77
2023/11/02 03:03:43;;;;;;;3.70;0.77;;;9.90;99.90;;;;;;4227581;27;20235;-76
2023/11/02 03:05:45;;;;;;;4.27;0.80;;;9.90;99.90;;;;;;4224926;27;20317;-77
2023/11/02 03:07:49;;;;;;;1.33;0.80;;;9.90;99.90;;;;;;4226445;27;20643;-76
2023/11/02 03:09:55;;;;;;;1.53;0.80;;;9.80;99.90;;;;;;4222983;27;20212;-76
2023/11/02 03:12:01;;;;;;;2.17;0.93;;;9.90;99.90;;;;;;4221524;28;20600;-76
2023/11/02 03:14:04;;;;;;;3.00;0.90;;;9.90;99.90;;;;;;4232049;27;20959;-76
2023/11/02 03:16:09;;;;;;;2.47;1.20;;;9.80;99.90;;;;;;4225218;27;20731;-76
2023/11/02 03:18:12;;;;;;;2.30;0.80;;;9.90;99.90;;;;;;4223418;28;20208;-76
2023/11/02 03:20:16;;;;;;;1.47;0.87;;;9.80;99.90;;;;;;4221479;28;20211;-75
2023/11/02 03:22:19;;;;;;;1.43;0.80;;;9.80;99.90;;;;;;4226651;27;20202;-76
2023/11/02 03:24:27;;;;;;;2.00;0.70;;;9.80;99.90;;;;;;4225152;28;20337;-76
2023/11/02 03:26:39;;;;;;;0.80;0.60;;;9.80;99.90;;;;;;4226342;27;20644;-75
2023/11/02 03:28:52;;;;;;;3.43;0.83;;;9.70;99.90;;;;;;4223185;27;20207;-75
2023/11/02 03:31:02;;;;;;;2.40;0.87;;;9.70;99.90;;;;;;4226218;28;20204;-76
2023/11/02 03:33:16;;;;;;;2.37;0.67;;;9.70;99.90;;;;;;4225471;28;20303;-76
2023/11/02 03:35:26;;;;;;;1.93;1.00;;;9.70;99.90;;;;;;4222263;28;20337;-76
2023/11/02 03:37:35;;;;;;;2.03;1.10;;;9.80;99.90;;;;;;4226893;27;20203;-77
2023/11/02 03:39:53;;;;;;;3.40;1.00;;;9.70;99.90;;;;;;4225146;28;20203;-75
2023/11/02 03:42:10;;;;;;;1.70;0.57;;;9.70;99.90;;;;;;4225065;28;20206;-76
2023/11/02 03:44:19;;;;;;;2.77;1.00;;;9.70;99.90;;;;;;4226801;27;20301;-75
2023/11/02 03:46:29;;;;;;;4.63;1.80;;;9.70;99.90;;;;;;4221518;28;20263;-76
2023/11/02 03:48:42;;;;;;;3.03;1.30;;;9.70;99.90;;;;;;4227020;27;20270;-75
2023/11/02 03:50:51;;;;;;;3.73;1.40;;;9.60;99.90;;;;;;4221078;28;20292;-76
2023/11/02 03:53:04;;;;;;;1.47;1.03;;;9.60;99.90;;;;;;4221840;27;20195;-76
2023/11/02 03:55:21;;;;;;;1.80;1.00;;;9.70;99.90;;;;;;4220926;28;20208;-76
2023/11/02 03:57:32;;;;;;;3.50;0.80;;;9.60;99.90;;;;;;4228010;28;20688;-76
2023/11/02 03:59:48;;;;;;;1.47;0.90;;;9.70;99.90;;;;;;4225255;27;20261;-77
2023/11/02 04:01:56;;;;;;;1.47;1.00;;;9.60;99.90;;;;;;4225516;28;20267;-76
2023/11/02 04:04:04;;;;;;;3.57;1.10;;;9.60;99.90;;;;;;4226973;28;20226;-75
2023/11/02 04:06:10;;;;;;;2.33;1.10;;;9.60;99.90;;;;;;4223070;28;20840;-75
2023/11/02 04:08:18;;;;;;;1.77;0.87;;;9.60;99.90;;;;;;4227406;28;20200;-76
2023/11/02 04:10:24;;;;;;;2.83;0.90;;;9.60;99.90;;;;;;4223800;28;20767;-75
2023/11/02 04:12:33;;;;;;;1.70;0.90;;;9.60;99.90;;;;;;4225214;28;20295;-75
2023/11/02 04:14:38;;;;;;;1.00;0.80;;;9.60;99.90;;;;;;4232509;28;20229;-76
2023/11/02 04:16:40;;;;;;;1.57;0.90;;;9.50;99.90;;;;;;4227061;28;20286;-76
2023/11/02 04:18:43;;;;;;;2.87;0.90;;;9.60;99.90;;;;;;4224615;28;20266;-77
2023/11/02 04:20:45;;;;;;;1.33;0.80;;;9.50;99.90;;;;;;4230637;28;20216;-77
2023/11/02 04:22:47;;;;;;;1.93;0.60;;;9.50;99.90;;;;;;4225624;28;20207;-76
2023/11/02 04:24:49;;;;;;;3.53;1.00;;;9.50;99.90;;;;;;4228062;28;20224;-76
2023/11/02 04:26:51;;;;;;;4.53;1.00;;;9.40;99.90;;;;;;4228669;28;20215;-76
2023/11/02 04:28:54;;;;;;;2.40;0.67;;;9.40;99.90;;;;;;4234808;27;20751;-76
2023/11/02 04:30:56;;;;;;;0.93;0.60;;;9.40;99.90;;;;;;4229101;27;20239;-76
2023/11/02 04:32:58;;;;;;;2.63;0.80;;;9.40;99.90;;;;;;4228469;28;20215;-75
2023/11/02 04:35:00;;;;;;;1.43;0.70;;;9.40;99.90;;;;;;4228115;28;20222;-76
2023/11/02 04:37:02;;;;;;;1.67;0.80;;;9.40;99.90;;;;;;4224158;28;20661;-76
2023/11/02 04:39:04;;;;;;;3.70;0.97;;;9.40;99.90;;;;;;4222864;28;20635;-76
2023/11/02 04:41:06;;;;;;;3.00;0.80;;;9.40;99.90;;;;;;4224636;28;20792;-75
2023/11/02 04:43:08;;;;;;;2.87;0.90;;;9.30;99.90;;;;;;4223620;27;20219;-75
2023/11/02 04:45:12;;;;;;;0.80;0.70;;;9.30;99.90;;;;;;4223465;28;20253;-76
2023/11/02 04:47:14;;;;;;;1.07;0.73;;;9.30;99.90;;;;;;4221020;28;20696;-76
2023/11/02 04:49:15;;;;;;;1.43;0.70;;;9.30;99.90;;;;;;4221975;28;21204;-76
2023/11/02 04:51:17;;;;;;;0.60;0.50;;;9.30;99.90;;;;;;4224681;28;20213;-75
2023/11/02 04:53:18;;;;;;;0.97;0.63;;;9.20;99.90;;;;;;4226041;28;20279;-76
2023/11/02 04:55:20;;;;;;;1.00;0.70;;;9.20;99.90;;;;;;4224553;28;20253;-75
2023/11/02 04:57:21;;;;;;;2.13;0.90;;;9.20;99.90;;;;;;4226930;28;20207;-75
2023/11/02 04:59:23;;;;;;;1.27;0.80;;;9.10;99.90;;;;;;4227190;27;20678;-75
2023/11/02 05:01:26;;;;;;;1.63;0.80;;;9.10;99.90;;;;;;4231017;27;20222;-75
2023/11/02 05:03:27;;;;;;;1.33;0.80;;;9.10;99.90;;;;;;4229009;27;20301;-75
2023/11/02 05:05:29;;;;;;;1.00;0.70;;;9.00;99.90;;;;;;4227224;27;20198;-75
2023/11/02 05:07:30;;;;;;;1.27;0.70;;;9.00;99.90;;;;;;4230401;27;20215;-75
2023/11/02 05:09:32;;;;;;;0.97;0.70;;;9.00;99.90;;;;;;4228397;27;20256;-75
2023/11/02 05:11:34;;;;;;;1.63;0.80;;;9.00;99.90;;;;;;4228929;27;20201;-76
2023/11/02 05:13:37;;;;;;;1.63;0.53;;;9.00;99.90;;;;;;4228284;27;20217;-76
2023/11/02 05:15:39;;;;;;;1.00;0.80;;;8.90;99.90;;;;;;4225022;27;20211;-76
2023/11/02 05:17:42;;;;;;;1.90;0.80;;;8.90;99.90;;;;;;4224007;28;20210;-78
2023/11/02 05:19:44;;;;;;;1.00;0.80;;;8.90;99.90;;;;;;4228375;27;20273;-77
2023/11/02 05:21:49;;;;;;;1.83;0.83;;;8.80;99.90;;;;;;4226454;28;20367;-75
2023/11/02 05:23:51;;;;;;;0.70;0.50;;;8.90;99.90;;;;;;4224035;27;20265;-76
2023/11/02 05:25:53;;;;;;;1.30;0.70;;;8.80;99.90;;;;;;4223658;27;20212;-76
2023/11/02 05:27:55;;;;;;;1.60;0.70;;;8.80;99.90;;;;;;4222581;28;20271;-75
2023/11/02 05:29:56;;;;;;;4.77;0.90;;;8.80;99.90;;;;;;4225645;27;20210;-75
2023/11/02 05:31:58;;;;;;;1.33;0.70;;;8.80;99.90;;;;;;4224933;28;20263;-75
2023/11/02 05:34:01;;;;;;;1.00;0.70;;;8.80;99.90;;;;;;4226400;27;20226;-75
2023/11/02 05:36:04;;;;;;;2.53;0.90;;;8.80;99.90;;;;;;4224233;27;20208;-75
2023/11/02 05:38:06;;;;;;;1.77;0.87;;;8.80;99.90;;;;;;4224534;27;20208;-77
2023/11/02 05:40:09;;;;;;;1.47;0.63;;;8.70;99.90;;;;;;4228867;27;20205;-77
2023/11/02 05:42:10;;;;;;;1.90;0.70;;;8.70;99.90;;;;;;4228750;27;20214;-77
2023/11/02 05:44:12;;;;;;;2.23;0.60;;;8.70;99.90;;;;;;4228084;28;20276;-76
2023/11/02 05:46:14;;;;;;;2.50;0.90;;;8.70;99.90;;;;;;4227007;28;20207;-75
2023/11/02 05:48:16;;;;;;;1.53;0.80;;;8.70;99.90;;;;;;4226084;27;20211;-75
2023/11/02 05:50:20;;;;;;;0.80;0.50;;;8.70;99.90;;;;;;4228602;27;20208;-75
2023/11/02 05:52:22;;;;;;;1.33;0.67;;;8.70;99.90;;;;;;4226662;28;20215;-75
2023/11/02 05:54:22;;;;;;;1.00;0.70;;;8.70;99.90;;;;;;4223497;27;20227;-76
2023/11/02 05:56:24;;;;;;;2.33;0.80;;;8.70;99.90;;;;;;4228027;27;20260;-75
2023/11/02 05:58:26;;;;;;;1.13;0.70;;;8.70;99.90;;;;;;4226974;28;20220;-77
2023/11/02 06:00:28;;;;;;;0.70;0.50;;;8.70;99.90;;;;;;4225979;27;20205;-76
2023/11/02 06:02:32;;;;;;;1.37;0.77;;;8.70;99.90;;;;;;4220971;28;20680;-76
2023/11/02 06:04:34;;;;;;;0.83;0.60;;;8.70;99.90;;;;;;4227840;27;20227;-78
2023/11/02 06:06:37;;;;;;;1.50;0.80;;;8.70;99.90;;;;;;4227825;27;20269;-76
2023/11/02 06:08:39;;;;;;;1.30;0.50;;;8.70;99.90;;;;;;4229658;28;20201;-75
2023/11/02 06:10:41;;;;;;;7.80;0.80;;;8.70;99.90;;;;;;4227231;27;20207;-77
2023/11/02 06:12:43;;;;;;;2.00;0.73;;;8.70;99.90;;;;;;4227514;28;20204;-75
2023/11/02 06:14:44;;;;;;;1.67;0.97;;;8.80;99.90;;;;;;4225914;27;20260;-76
2023/11/02 06:16:46;;;;;;;4.37;1.20;;;8.80;99.90;;;;;;4232182;27;20211;-76
2023/11/02 06:18:49;;;;;;;3.40;1.10;;;8.80;99.90;;;;;;4230890;27;20211;-75
2023/11/02 06:20:50;;;;;;;4.33;1.20;;;8.80;99.90;;;;;;4227971;27;20206;-75
2023/11/02 06:22:53;;;;;;;4.27;1.20;;;8.70;99.90;;;;;;4229179;27;20230;-75
2023/11/02 06:24:55;;;;;;;2.17;1.13;;;8.80;99.90;;;;;;4223093;28;20215;-75
2023/11/02 06:26:57;;;;;;;3.27;1.10;;;8.80;99.90;;;;;;4228294;28;20221;-77
2023/11/02 06:28:58;;;;;;;8.20;1.63;;;8.80;99.90;;;;;;4225117;28;20225;-76
2023/11/02 06:31:00;;;;;;;4.03;1.00;;;8.80;99.90;;;;;;4227357;28;20195;-76
2023/11/02 06:33:04;;;;;;;3.47;1.33;;;8.80;99.90;;;;;;4224747;27;20229;-76
2023/11/02 06:35:08;;;;;;;1.83;1.00;;;8.80;99.90;;;;;;4229245;27;20247;-76
2023/11/02 06:37:13;;;;;;;1.90;1.30;;;8.80;99.90;;;;;;4223668;28;20207;-77
2023/11/02 06:39:20;;;;;;;3.83;1.20;;;8.80;99.90;;;;;;4229771;28;20266;-75
2023/11/02 06:41:22;;;;;;;3.27;1.50;;;8.90;99.90;;;;;;4223839;28;20629;-77
2023/11/02 06:43:26;;;;;;;2.73;1.30;;;8.80;99.90;;;;;;4224754;28;20591;-75
2023/11/02 06:45:27;;;;;;;4.50;1.40;;;8.90;99.90;;;;;;4227713;27;20211;-77
2023/11/02 06:47:29;;;;;;;4.33;1.27;;;8.90;99.90;;;;;;4227442;27;20203;-75
2023/11/02 06:49:31;;;;;;;4.80;1.43;;;8.90;99.90;;;;;;4228857;27;20703;-76
2023/11/02 06:51:33;;;;;;;4.13;1.43;;;8.90;99.90;;;;;;4228919;27;20220;-77
2023/11/02 06:53:35;;;;;;;5.00;1.73;;;8.90;99.90;;;;;;4230413;27;20684;-78
2023/11/02 06:55:39;;;;;;;4.00;1.63;;;8.90;99.90;;;;;;4228113;27;20233;-77
2023/11/02 06:57:41;;;;;;;4.17;1.97;;;8.90;99.90;;;;;;4226926;27;20203;-77
2023/11/02 06:59:42;;;;;;;6.20;2.13;;;8.90;99.90;;;;;;4224529;27;20216;-78
2023/11/02 07:01:44;;;;;;;4.47;2.37;;;9.00;99.90;;;;;;4222002;28;20326;-77
2023/11/02 07:03:47;;;;;;;3.53;1.90;;;9.00;99.90;;;;;;4222682;27;20250;-77
2023/11/02 07:05:48;;;;;;;4.17;2.10;;;9.10;99.90;;;;;;4222229;27;20217;-77
2023/11/02 07:07:50;;;;;;;3.77;2.00;;;9.10;99.90;;;;;;4232582;27;20198;-77
2023/11/02 07:09:52;;;;;;;5.27;2.40;;;9.10;99.90;;;;;;4229571;27;20202;-77
2023/11/02 07:11:55;;;;;;;5.03;2.40;;;9.20;99.90;;;;;;4221197;27;20206;-77
2023/11/02 07:13:57;;;;;;;4.40;2.13;;;9.20;99.90;;;;;;4228101;28;20731;-77
2023/11/02 07:15:59;;;;;;;4.50;2.20;;;9.20;99.90;;;;;;4224725;27;20213;-77
2023/11/02 07:18:01;;;;;;;5.23;2.20;;;9.30;99.90;;;;;;4229334;27;20735;-79
2023/11/02 07:20:05;;;;;;;8.07;2.50;;;9.30;99.90;;;;;;4223753;27;20214;-79
2023/11/02 07:22:07;;;;;;;5.03;2.60;;;9.40;99.90;;;;;;4225489;28;20585;-79
2023/11/02 07:24:09;;;;;;;3.53;2.37;;;9.40;99.90;;;;;;4230570;27;20227;-80
2023/11/02 07:26:11;;;;;;;4.43;2.40;;;9.50;99.90;;;;;;4223067;27;20216;-79
2023/11/02 07:28:14;;;;;;;4.67;2.23;;;9.50;99.90;;;;;;4226901;27;20914;-79
2023/11/02 07:30:16;;;;;;;6.23;2.57;;;9.60;99.90;;;;;;4223822;28;20222;-78
2023/11/02 07:32:19;;;;;;;5.13;2.73;;;9.60;99.90;;;;;;4225166;28;20591;-79
2023/11/02 07:34:21;;;;;;;4.80;2.40;;;9.60;99.90;;;;;;4227840;27;20751;-79
2023/11/02 07:36:23;;;;;;;7.27;3.10;;;9.70;99.90;;;;;;4228262;27;20201;-79
2023/11/02 07:38:24;;;;;;;5.83;2.60;;;9.70;99.90;;;;;;4226965;27;20200;-79
2023/11/02 07:40:26;;;;;;;4.70;2.53;;;9.80;99.90;;;;;;4225989;27;20204;-80
2023/11/02 07:42:27;;;;;;;6.53;3.03;;;9.80;99.90;;;;;;4225919;27;20265;-79
2023/11/02 07:44:31;;;;;;;5.87;2.90;;;9.90;99.90;;;;;;4227437;27;20223;-80
2023/11/02 07:46:33;;;;;;;4.43;2.73;;;9.80;99.90;;;;;;4230258;27;20211;-80
2023/11/02 07:48:34;;;;;;;7.17;2.90;;;9.80;99.90;;;;;;4224206;28;20666;-79
2023/11/02 07:50:39;;;;;;;4.43;2.33;;;9.90;99.90;;;;;;4226857;28;20772;-79
2023/11/02 07:52:42;;;;;;;5.30;2.77;;;9.90;99.90;;;;;;4231439;27;20207;-79
2023/11/02 07:54:45;;;;;;;6.07;3.30;;;9.90;99.90;;;;;;4222815;28;20215;-79
2023/11/02 07:56:47;;;;;;;7.83;2.93;;;10.00;99.90;;;;;;4225644;28;20204;-79
2023/11/02 07:58:49;;;;;;;5.53;3.30;;;10.00;99.90;;;;;;4223819;28;20200;-79
2023/11/02 08:00:53;;;;;;;5.83;3.37;;;10.00;99.90;;;;;;4229115;28;20273;-79
2023/11/02 08:02:55;;;;;;;6.27;3.40;;;10.00;99.90;;;;;;4231129;28;20655;-79
2023/11/02 08:04:56;;;;;;;8.23;3.80;;;10.10;99.90;;;;;;4223844;28;20222;-79
2023/11/02 08:06:58;;;;;;;6.97;3.50;;;9.80;99.90;;;;;;4225166;28;20237;-79
2023/11/02 08:08:59;;;;;;;6.83;3.37;;;10.10;99.90;;;;;;4232201;28;20201;-80
2023/11/02 08:11:01;;;;;;;7.17;3.70;;;10.10;99.90;;;;;;4225962;28;20216;-80
2023/11/02 08:13:03;;;;;;;6.33;3.43;;;10.20;99.90;;;;;;4226970;28;20287;-79
2023/11/02 08:15:06;;;;;;;6.63;3.47;;;10.30;99.90;;;;;;4229070;28;20200;-80
2023/11/02 08:17:09;;;;;;;6.20;3.20;;;10.20;99.90;;;;;;4229211;28;20208;-80
2023/11/02 08:19:14;;;;;;;6.80;3.20;;;10.20;99.90;;;;;;4225474;27;20215;-79
2023/11/02 08:21:16;;;;;;;8.10;3.63;;;10.20;99.90;;;;;;4227874;28;20811;-79
2023/11/02 08:23:18;;;;;;;6.43;3.50;;;10.20;99.90;;;;;;4223408;28;20787;-79
2023/11/02 08:25:20;;;;;;;6.90;3.53;;;10.20;99.90;;;;;;4227489;27;20287;-76
2023/11/02 08:27:21;;;;;;;8.83;4.00;;;10.30;99.90;;;;;;4221574;28;20204;-76
2023/11/02 08:29:23;;;;;;;7.87;3.83;;;10.30;99.90;;;;;;4220804;28;21769;-76
2023/11/02 08:31:26;;;;;;;8.20;3.70;;;10.30;99.90;;;;;;4223060;28;20216;-76
2023/11/02 08:33:29;;;;;;;7.80;3.93;;;10.30;99.90;;;;;;4224872;27;20239;-76
2023/11/02 08:35:31;;;;;;;7.37;3.90;;;10.30;99.90;;;;;;4223855;27;20201;-76
2023/11/02 08:37:33;;;;;;;7.27;3.73;;;10.40;99.90;;;;;;4224127;27;20199;-76
2023/11/02 08:39:35;;;;;;;7.37;3.30;;;10.40;99.90;;;;;;4227031;27;20273;-75
2023/11/02 08:41:37;;;;;;;9.37;3.97;;;10.50;99.90;;;;;;4225495;27;20212;-76
2023/11/02 08:43:38;;;;;;;6.80;3.40;;;10.60;99.90;;;;;;4225989;28;20315;-76
2023/11/02 08:45:40;;;;;;;11.10;3.83;;;10.50;99.90;;;;;;4223060;27;20256;-76
2023/11/02 08:47:43;;;;;;;7.53;3.57;;;10.60;99.90;;;;;;4225645;28;20215;-75
2023/11/02 08:49:46;;;;;;;7.13;3.63;;;10.60;99.90;;;;;;4223408;27;20203;-75
2023/11/02 08:51:48;;;;;;;7.27;3.73;;;10.70;99.90;;;;;;4222781;27;20317;-76
2023/11/02 08:53:50;;;;;;;7.10;3.60;;;10.70;99.90;;;;;;4224874;28;20581;-77
2023/11/02 08:55:52;;;;;;;8.27;3.67;;;10.80;99.90;;;;;;4224867;27;20192;-75
2023/11/02 08:57:54;;;;;;;7.70;4.10;;;10.80;99.90;;;;;;4221993;28;20576;-75
2023/11/02 08:59:56;;;;;;;6.23;3.77;;;10.80;99.90;;;;;;4224205;27;20200;-76
2023/11/02 09:01:58;;;;;;;6.73;3.50;;;10.90;99.90;;;;;;4228754;27;20220;-76
2023/11/02 09:04:00;;;;;;;7.00;3.50;;;10.90;99.90;;;;;;4231601;27;20220;-77
2023/11/02 09:06:04;;;;;;;7.57;3.67;;;10.90;99.90;;;;;;4231549;27;20837;-77
2023/11/02 09:08:06;;;;;;;8.10;3.93;;;11.00;99.90;;;;;;4229979;27;20210;-77
2023/11/02 09:10:09;;;;;;;8.37;3.87;;;10.90;99.90;;;;;;4227972;28;20204;-77
2023/11/02 09:12:11;;;;;;;9.03;3.87;;;11.00;99.90;;;;;;4230664;27;20197;-77
2023/11/02 09:14:13;;;;;;;6.47;3.43;;;11.00;99.90;;;;;;4225791;27;20286;-77
2023/11/02 09:16:15;;;;;;;9.77;3.83;;;11.10;99.90;;;;;;4230044;27;20212;-77
2023/11/02 09:18:17;;;;;;;7.00;3.77;;;11.10;99.90;;;;;;4228809;27;20266;-77
2023/11/02 09:20:20;;;;;;;11.87;4.00;;;11.10;99.90;;;;;;4225748;27;20207;-77
2023/11/02 09:22:24;;;;;;;6.23;3.50;;;11.20;99.90;;;;;;4227365;27;20204;-77
2023/11/02 09:24:26;;;;;;;8.97;4.40;;;11.20;99.90;;;;;;4225228;27;20291;-77
2023/11/02 09:26:29;;;;;;;7.90;4.03;;;11.20;99.90;;;;;;4226852;28;20208;-77
2023/11/02 09:28:31;;;;;;;8.87;4.57;;;11.30;99.90;;;;;;4225307;27;20213;-77
2023/11/02 09:30:33;;;;;;;6.57;3.80;;;11.30;99.90;;;;;;4224832;28;20253;-77
2023/11/02 09:32:35;;;;;;;7.40;4.30;;;11.40;99.90;;;;;;4226703;27;20676;-77
2023/11/02 09:34:38;;;;;;;8.20;4.47;;;11.40;99.90;;;;;;4227872;27;20212;-77
2023/11/02 09:36:40;;;;;;;7.43;4.07;;;11.40;99.90;;;;;;4228874;27;20214;-77
2023/11/02 09:38:43;;;;;;;7.73;4.40;;;11.40;99.90;;;;;;4227484;27;20194;-77
2023/11/02 09:40:44;;;;;;;6.87;3.80;;;11.50;99.90;;;;;;4220390;27;20197;-77
2023/11/02 09:42:46;;;;;;;9.30;4.23;;;11.50;99.90;;;;;;4222270;27;20724;-76
2023/11/02 09:44:48;;;;;;;6.07;3.60;;;11.60;99.90;;;;;;4224251;27;20227;-76
2023/11/02 09:46:51;;;;;;;8.97;3.87;;;11.60;99.90;;;;;;4225869;27;21109;-76
2023/11/02 09:48:53;;;;;;;7.27;3.63;;;11.70;99.90;;;;;;4221645;28;20242;-75
2023/11/02 09:50:57;;;;;;;8.53;4.30;;;11.70;99.90;;;;;;4224626;27;20620;-75
2023/11/02 09:53:00;;;;;;;6.67;3.67;;;11.80;99.90;;;;;;4222503;27;20258;-76
2023/11/02 09:55:04;;;;;;;7.00;4.00;;;11.90;99.90;;;;;;4223053;27;20209;-75
2023/11/02 09:57:07;;;;;;;7.17;3.47;;;11.90;99.90;;;;;;4224703;28;20262;-76
2023/11/02 09:59:10;;;;;;;7.30;3.57;;;12.00;99.90;;;;;;4221862;27;20228;-76
2023/11/02 10:01:13;;;;;;;6.23;3.50;;;12.10;99.90;;;;;;4221241;28;20252;-76
2023/11/02 10:03:16;;;;;;;6.17;3.60;;;12.20;99.90;;;;;;4220563;27;20262;-75
2023/11/02 10:05:18;;;;;;;6.23;3.60;;;12.30;99.90;;;;;;4221683;27;20217;-75
2023/11/02 10:07:20;;;;;;;4.83;2.80;;;12.30;99.90;;;;;;4221503;27;20204;-76
2023/11/02 10:09:24;;;;;;;8.07;3.50;;;12.40;99.90;;;;;;4222363;28;20241;-75
2023/11/02 10:11:27;;;;;;;5.47;3.10;;;12.50;99.90;;;;;;4224387;28;20694;-77
2023/11/02 10:13:28;;;;;;;5.30;2.80;;;12.60;99.90;;;;;;4232802;27;20226;-77
2023/11/02 10:15:31;;;;;;;5.43;3.10;;;12.70;99.90;;;;;;4223487;27;20274;-77
2023/11/02 10:17:35;;;;;;;4.23;2.70;;;12.70;99.90;;;;;;4225734;27;20206;-75
2023/11/02 10:19:37;;;;;;;4.80;2.93;;;12.70;99.90;;;;;;4226668;27;20205;-75
2023/11/02 10:21:39;;;;;;;5.10;3.10;;;12.80;99.90;;;;;;4222842;28;20246;-75
2023/11/02 10:23:54;;;;;;;9.40;3.03;;;12.90;99.90;;;;;;4220003;27;20282;-75
2023/11/02 10:25:55;;;;;;;7.83;3.03;;;12.90;99.90;;;;;;4220944;28;20222;-78
2023/11/02 10:28:00;;;;;;;6.37;2.70;;;13.00;99.90;;;;;;4229342;27;20264;-75
2023/11/02 10:30:05;;;;;;;5.67;2.93;;;13.00;99.90;;;;;;4219569;28;20269;-76
2023/11/02 10:32:07;;;;;;;6.70;2.83;;;13.10;99.90;;;;;;4222962;27;20733;-75
2023/11/02 10:34:10;;;;;;;5.27;2.57;;;13.20;99.90;;;;;;4222963;27;20227;-76
2023/11/02 10:36:11;;;;;;;5.57;2.57;;;13.20;99.90;;;;;;4226070;27;20586;-75
2023/11/02 10:38:14;;;;;;;5.37;2.50;;;13.30;99.90;;;;;;4223362;27;20195;-76
2023/11/02 10:40:16;;;;;;;4.10;2.57;;;13.40;99.90;;;;;;4221926;27;20216;-75
2023/11/02 10:42:18;;;;;;;6.00;2.57;;;13.40;99.90;;;;;;4221746;28;20266;-76
2023/11/02 10:44:26;;;;;;;5.30;2.37;;;13.50;99.90;;;;;;4224787;28;20220;-76
2023/11/02 10:46:28;;;;;;;4.83;2.63;;;13.50;99.90;;;;;;4221783;28;20219;-76
2023/11/02 10:48:34;;;;;;;5.53;2.57;;;13.50;99.90;;;;;;4222323;27;20278;-75
2023/11/02 10:50:37;;;;;;;4.00;2.40;;;13.60;99.90;;;;;;4223965;28;20200;-75
2023/11/02 10:52:46;;;;;;;5.00;2.43;;;13.60;99.90;;;;;;4224670;28;20581;-76